Wetterstation Vordersexau
Wetterdaten: Woche 27.02.12 - 04.03.12 (KW9)
Datum Zeit Temp. A. Feuchte A. Luftdruck Regen Wind Richtung Taupunkt Windchill Windben
27.02.2012 00:00 3,0 C 85 % 1026,1 hPa 0,0 l/m 0,0 km/h O-NO 0,7 C 3,0 C 0,0 km/h
27.02.2012 01:00 2,1 C 86 % 1026,1 hPa 0,0 l/m 0,0 km/h O-NO 0,0 C 2,1 C 0,0 km/h
27.02.2012 02:00 0,7 C 86 % 1025,8 hPa 0,0 l/m 0,0 km/h O-SO -1,4 C 0,7 C 0,0 km/h
27.02.2012 03:00 0,4 C 87 % 1025,6 hPa 0,0 l/m 0,0 km/h O-NO -1,5 C 0,4 C 0,0 km/h
27.02.2012 04:00 -0,7 C 86 % 1025,5 hPa 0,0 l/m 0,0 km/h NO -2,7 C -0,7 C 0,0 km/h
27.02.2012 05:00 -1,9 C 87 % 1025,8 hPa 0,0 l/m 0,0 km/h O-NO -3,8 C -1,9 C 0,0 km/h
27.02.2012 06:00 -1,7 C 86 % 1025,7 hPa 0,0 l/m 0,0 km/h O-SO -3,7 C -1,7 C 0,0 km/h
27.02.2012 07:00 -1,9 C 86 % 1025,8 hPa 0,0 l/m 0,0 km/h O-NO -3,9 C -1,9 C 0,0 km/h
27.02.2012 08:00 0,4 C 83 % 1025,7 hPa 0,0 l/m 0,0 km/h O-NO -2,1 C 0,4 C 0,0 km/h
27.02.2012 09:00 6,3 C 86 % 1025,7 hPa 0,0 l/m 0,0 km/h NW 4,1 C 6,3 C 0,0 km/h
27.02.2012 10:00 11,1 C 66 % 1026,2 hPa 0,0 l/m 0,0 km/h N-NW 5,0 C 11,1 C 0,0 km/h
27.02.2012 11:00 13,3 C 55 % 1026,0 hPa 0,0 l/m 0,0 km/h W-SW 4,5 C 13,3 C 0,0 km/h
27.02.2012 12:00 12,9 C 52 % 1025,2 hPa 0,0 l/m 18,8 km/h W 3,3 C 7,4 C 10,4 km/h
27.02.2012 13:00 13,2 C 48 % 1024,2 hPa 0,0 l/m 0,0 km/h W-NW 2,4 C 13,2 C 0,0 km/h
27.02.2012 14:00 14,5 C 45 % 1023,7 hPa 0,0 l/m 7,1 km/h NW 2,7 C 14,1 C 4,0 km/h
27.02.2012 15:00 15,9 C 39 % 1023,1 hPa 0,0 l/m 9,7 km/h W 2,0 C 14,2 C 5,4 km/h
27.02.2012 16:00 15,1 C 39 % 1023,1 hPa 0,0 l/m 3,9 km/h W-SW 1,3 C 15,1 C 2,2 km/h
27.02.2012 17:00 10,6 C 48 % 1023,2 hPa 0,0 l/m 0,0 km/h NO 0,1 C 10,6 C 0,0 km/h
27.02.2012 18:00 4,5 C 67 % 1023,4 hPa 0,0 l/m 0,0 km/h O-NO -1,1 C 4,5 C 0,0 km/h
27.02.2012 19:00 2,5 C 72 % 1023,7 hPa 0,0 l/m 0,0 km/h O-SO -2,0 C 2,5 C 0,0 km/h
27.02.2012 20:00 2,0 C 77 % 1024,4 hPa 0,0 l/m 0,0 km/h N-NO -1,6 C 2,0 C 0,0 km/h
27.02.2012 21:00 1,1 C 80 % 1024,5 hPa 0,0 l/m 0,0 km/h O -2,0 C 1,1 C 0,0 km/h
27.02.2012 22:00 0,4 C 82 % 1024,5 hPa 0,0 l/m 0,0 km/h NO -2,3 C 0,4 C 0,0 km/h
27.02.2012 23:00 -0,1 C 83 % 1024,5 hPa 0,0 l/m 0,0 km/h O-SO -2,6 C -0,1 C 0,0 km/h
28.02.2012 00:00 -0,4 C 84 % 1024,4 hPa 0,0 l/m 0,0 km/h O-SO -2,8 C -0,4 C 0,0 km/h
28.02.2012 01:00 0,9 C 85 % 1024,2 hPa 0,0 l/m 0,0 km/h O-SO -1,3 C 0,9 C 0,0 km/h
28.02.2012 02:00 1,4 C 84 % 1024,5 hPa 0,0 l/m 0,0 km/h O-SO -1,0 C 1,4 C 0,0 km/h
28.02.2012 03:00 2,1 C 83 % 1024,1 hPa 0,0 l/m 0,0 km/h O-SO -0,5 C 2,1 C 0,0 km/h
28.02.2012 04:00 1,9 C 83 % 1023,8 hPa 0,0 l/m 0,0 km/h NO -0,7 C 1,9 C 0,0 km/h
28.02.2012 05:00 0,6 C 84 % 1023,9 hPa 0,0 l/m 0,0 km/h NO -1,8 C 0,6 C 0,0 km/h
28.02.2012 06:00 1,8 C 85 % 1024,0 hPa 0,0 l/m 0,0 km/h O-NO -0,4 C 1,8 C 0,0 km/h
28.02.2012 07:00 2,2 C 85 % 1024,3 hPa 0,0 l/m 0,0 km/h SO -0,1 C 2,2 C 0,0 km/h
28.02.2012 08:00 3,8 C 83 % 1024,6 hPa 0,0 l/m 0,0 km/h O-SO 1,2 C 3,8 C 0,0 km/h
28.02.2012 09:00 6,0 C 79 % 1024,8 hPa 0,0 l/m 0,0 km/h N 2,6 C 6,0 C 0,0 km/h
28.02.2012 10:00 6,7 C 75 % 1024,8 hPa 0,0 l/m 0,0 km/h N-NO 2,6 C 6,7 C 0,0 km/h
28.02.2012 11:00 8,5 C 68 % 1024,8 hPa 0,0 l/m 0,0 km/h NW 2,9 C 8,5 C 0,0 km/h
28.02.2012 12:00 9,9 C 63 % 1024,5 hPa 0,0 l/m 0,0 km/h N-NO 3,2 C 9,9 C 0,0 km/h
28.02.2012 13:00 11,4 C 56 % 1024,0 hPa 0,0 l/m 0,0 km/h N-NW 2,9 C 11,4 C 0,0 km/h
28.02.2012 14:00 11,3 C 56 % 1023,8 hPa 0,0 l/m 0,0 km/h W-NW 2,8 C 11,3 C 0,0 km/h
28.02.2012 15:00 10,7 C 58 % 1023,2 hPa 0,0 l/m 0,0 km/h W 2,8 C 10,7 C 0,0 km/h
28.02.2012 16:00 10,9 C 58 % 1023,3 hPa 0,0 l/m 0,0 km/h W-SW 3,0 C 10,9 C 0,0 km/h
28.02.2012 17:00 8,8 C 65 % 1023,2 hPa 0,0 l/m 0,0 km/h S 2,6 C 8,8 C 0,0 km/h
28.02.2012 18:00 6,6 C 72 % 1023,8 hPa 0,0 l/m 0,0 km/h S 1,9 C 6,6 C 0,0 km/h
28.02.2012 19:00 3,9 C 77 % 1024,1 hPa 0,0 l/m 0,0 km/h O-SO 0,2 C 3,9 C 0,0 km/h
28.02.2012 20:00 2,8 C 81 % 1024,0 hPa 0,0 l/m 0,0 km/h O-NO -0,1 C 2,8 C 0,0 km/h
28.02.2012 21:00 2,3 C 83 % 1024,2 hPa 0,0 l/m 0,0 km/h O-NO -0,3 C 2,3 C 0,0 km/h
28.02.2012 22:00 2,3 C 85 % 1024,1 hPa 0,0 l/m 0,0 km/h SO 0,0 C 2,3 C 0,0 km/h
28.02.2012 23:00 1,6 C 85 % 1024,3 hPa 0,0 l/m 0,0 km/h O -0,6 C 1,6 C 0,0 km/h
29.02.2012 00:00 1,3 C 86 % 1024,6 hPa 0,0 l/m 0,0 km/h NO -0,8 C 1,3 C 0,0 km/h
29.02.2012 01:00 1,1 C 86 % 1024,2 hPa 0,0 l/m 0,0 km/h O-SO -1,0 C 1,1 C 0,0 km/h
29.02.2012 02:00 1,0 C 86 % 1024,1 hPa 0,0 l/m 4,5 km/h O-SO -1,1 C 1,0 C 2,5 km/h
29.02.2012 03:00 0,6 C 86 % 1024,0 hPa 0,0 l/m 0,0 km/h NO -1,5 C 0,6 C 0,0 km/h
29.02.2012 04:00 1,8 C 85 % 1024,0 hPa 0,0 l/m 0,0 km/h N-NO -0,4 C 1,8 C 0,0 km/h
29.02.2012 05:00 2,4 C 85 % 1024,0 hPa 0,0 l/m 0,0 km/h N-NO 0,1 C 2,4 C 0,0 km/h
29.02.2012 06:00 3,1 C 85 % 1023,8 hPa 0,0 l/m 0,0 km/h N-NO 0,8 C 3,1 C 0,0 km/h
29.02.2012 07:00 3,2 C 86 % 1023,7 hPa 0,0 l/m 0,0 km/h S 1,1 C 3,2 C 0,0 km/h
29.02.2012 08:00 7,6 C 86 % 1024,0 hPa 0,0 l/m 0,0 km/h SO 5,4 C 7,6 C 0,0 km/h
29.02.2012 09:00 12,3 C 71 % 1023,3 hPa 0,0 l/m 0,0 km/h NW 7,2 C 12,3 C 0,0 km/h
29.02.2012 10:00 14,9 C 62 % 1023,2 hPa 0,0 l/m 7,1 km/h W 7,7 C 14,5 C 4,0 km/h
29.02.2012 11:00 16,9 C 55 % 1022,7 hPa 0,0 l/m 0,0 km/h W 7,8 C 16,9 C 0,0 km/h
29.02.2012 12:00 15,9 C 59 % 1022,2 hPa 0,0 l/m 7,8 km/h NW 7,9 C 15,1 C 4,3 km/h
29.02.2012 13:00 17,1 C 58 % 1021,7 hPa 0,0 l/m 2,6 km/h W 8,8 C 17,1 C 1,4 km/h
29.02.2012 14:00 17,9 C 58 % 1021,3 hPa 0,0 l/m 7,1 km/h W-NW 9,5 C 17,6 C 4,0 km/h
29.02.2012 15:00 19,6 C 54 % 1021,0 hPa 0,0 l/m 5,2 km/h W-NW 10,0 C 19,6 C 2,9 km/h
29.02.2012 16:00 19,8 C 54 % 1021,0 hPa 0,0 l/m 1,9 km/h W 10,2 C 19,8 C 1,1 km/h
29.02.2012 17:00 17,8 C 58 % 1021,0 hPa 0,0 l/m 0,0 km/h O-NO 9,4 C 17,8 C 0,0 km/h
29.02.2012 18:00 10,4 C 76 % 1020,9 hPa 0,0 l/m 0,0 km/h O-SO 6,4 C 10,4 C 0,0 km/h
29.02.2012 19:00 8,2 C 81 % 1020,9 hPa 0,0 l/m 0,0 km/h O-SO 5,1 C 8,2 C 0,0 km/h
29.02.2012 20:00 7,6 C 83 % 1021,0 hPa 0,0 l/m 0,0 km/h S-SO 4,9 C 7,6 C 0,0 km/h
29.02.2012 21:00 5,5 C 84 % 1021,1 hPa 0,0 l/m 0,0 km/h NO 3,0 C 5,5 C 0,0 km/h
29.02.2012 22:00 4,8 C 86 % 1021,2 hPa 0,0 l/m 0,0 km/h O-NO 2,7 C 4,8 C 0,0 km/h
29.02.2012 23:00 3,9 C 86 % 1021,3 hPa 0,0 l/m 0,0 km/h O-NO 1,8 C 3,9 C 0,0 km/h
01.03.2012 00:00 4,1 C 85 % 1021,1 hPa 0,0 l/m 0,0 km/h N-NO 1,8 C 4,1 C 0,0 km/h
01.03.2012 01:00 3,6 C 85 % 1020,9 hPa 0,0 l/m 1,3 km/h N-NO 1,3 C 3,6 C 0,7 km/h
01.03.2012 02:00 2,9 C 85 % 1020,7 hPa 0,0 l/m 0,0 km/h NO 0,6 C 2,9 C 0,0 km/h
01.03.2012 03:00 2,1 C 85 % 1020,6 hPa 0,0 l/m 0,0 km/h N-NO -0,2 C 2,1 C 0,0 km/h
01.03.2012 04:00 1,6 C 85 % 1020,6 hPa 0,0 l/m 0,0 km/h NO -0,6 C 1,6 C 0,0 km/h
01.03.2012 05:00 1,8 C 84 % 1020,9 hPa 0,0 l/m 0,0 km/h NO -0,6 C 1,8 C 0,0 km/h
01.03.2012 06:00 1,4 C 84 % 1020,9 hPa 0,0 l/m 0,0 km/h NO -1,0 C 1,4 C 0,0 km/h
01.03.2012 07:00 1,5 C 84 % 1021,2 hPa 0,0 l/m 0,0 km/h O-NO -0,9 C 1,5 C 0,0 km/h
01.03.2012 08:00 3,4 C 82 % 1021,4 hPa 0,0 l/m 0,0 km/h W-SW 0,6 C 3,4 C 0,0 km/h
01.03.2012 09:00 5,3 C 79 % 1021,8 hPa 0,0 l/m 1,3 km/h SW 2,0 C 5,3 C 0,7 km/h
01.03.2012 10:00 6,3 C 84 % 1022,0 hPa 0,0 l/m 0,0 km/h W-NW 3,8 C 6,3 C 0,0 km/h
01.03.2012 11:00 8,3 C 86 % 1022,0 hPa 0,0 l/m 0,0 km/h W-SW 6,1 C 8,3 C 0,0 km/h
01.03.2012 12:00 9,2 C 84 % 1021,9 hPa 0,0 l/m 0,0 km/h W 6,6 C 9,2 C 0,0 km/h
01.03.2012 13:00 11,0 C 81 % 1021,9 hPa 0,0 l/m 1,9 km/h NW 7,9 C 11,0 C 1,1 km/h
01.03.2012 14:00 11,9 C 77 % 1021,9 hPa 0,0 l/m 0,0 km/h NW 8,0 C 11,9 C 0,0 km/h
01.03.2012 15:00 15,9 C 65 % 1021,9 hPa 0,0 l/m 0,0 km/h W-NW 9,3 C 15,9 C 0,0 km/h
01.03.2012 16:00 16,4 C 62 % 1021,8 hPa 0,0 l/m 5,8 km/h W-NW 9,1 C 16,4 C 3,2 km/h
01.03.2012 17:00 12,2 C 70 % 1022,1 hPa 0,0 l/m 0,0 km/h NW 6,9 C 12,2 C 0,0 km/h
01.03.2012 18:00 7,3 C 84 % 1022,9 hPa 0,0 l/m 0,0 km/h O-SO 4,8 C 7,3 C 0,0 km/h
01.03.2012 19:00 6,9 C 85 % 1022,9 hPa 0,0 l/m 0,0 km/h O-NO 4,6 C 6,9 C 0,0 km/h
01.03.2012 20:00 6,5 C 85 % 1023,2 hPa 0,0 l/m 0,0 km/h O-NO 4,2 C 6,5 C 0,0 km/h
01.03.2012 21:00 6,2 C 85 % 1023,2 hPa 0,0 l/m 0,0 km/h O-NO 3,9 C 6,2 C 0,0 km/h
01.03.2012 22:00 5,3 C 85 % 1023,4 hPa 0,0 l/m 0,0 km/h O 3,0 C 5,3 C 0,0 km/h
01.03.2012 23:00 4,5 C 85 % 1023,4 hPa 0,0 l/m 0,0 km/h O 2,2 C 4,5 C 0,0 km/h
02.03.2012 00:00 3,8 C 85 % 1023,5 hPa 0,0 l/m 0,0 km/h O 1,5 C 3,8 C 0,0 km/h
02.03.2012 01:00 3,3 C 84 % 1023,6 hPa 0,0 l/m 0,0 km/h O-NO 0,9 C 3,3 C 0,0 km/h
02.03.2012 02:00 3,3 C 84 % 1023,6 hPa 0,0 l/m 0,0 km/h O-NO 0,9 C 3,3 C 0,0 km/h
02.03.2012 03:00 2,9 C 84 % 1023,7 hPa 0,0 l/m 0,0 km/h O-NO 0,5 C 2,9 C 0,0 km/h
02.03.2012 04:00 2,6 C 83 % 1023,5 hPa 0,0 l/m 0,0 km/h O-NO 0,0 C 2,6 C 0,0 km/h
02.03.2012 05:00 2,2 C 83 % 1023,9 hPa 0,0 l/m 0,0 km/h O-NO -0,4 C 2,2 C 0,0 km/h
02.03.2012 06:00 1,8 C 83 % 1024,1 hPa 0,0 l/m 0,0 km/h O-NO -0,8 C 1,8 C 0,0 km/h
02.03.2012 07:00 1,5 C 83 % 1024,3 hPa 0,0 l/m 0,0 km/h W -1,1 C 1,5 C 0,0 km/h
02.03.2012 08:00 2,4 C 79 % 1024,1 hPa 0,0 l/m 0,0 km/h NW -0,9 C 2,4 C 0,0 km/h
02.03.2012 09:00 3,9 C 84 % 1024,4 hPa 0,0 l/m 0,0 km/h W 1,4 C 3,9 C 0,0 km/h
02.03.2012 10:00 5,8 C 86 % 1024,2 hPa 0,0 l/m 0,0 km/h W 3,6 C 5,8 C 0,0 km/h
02.03.2012 11:00 6,8 C 85 % 1024,4 hPa 0,0 l/m 2,6 km/h SW 4,5 C 6,8 C 1,4 km/h
02.03.2012 12:00 8,1 C 84 % 1023,7 hPa 0,0 l/m 0,0 km/h N-NW 5,6 C 8,1 C 0,0 km/h
02.03.2012 13:00 11,6 C 78 % 1023,2 hPa 0,0 l/m 0,0 km/h W 7,9 C 11,6 C 0,0 km/h
02.03.2012 14:00 14,5 C 70 % 1022,4 hPa 0,0 l/m 0,0 km/h N 9,1 C 14,5 C 0,0 km/h
02.03.2012 15:00 16,5 C 64 % 1022,0 hPa 0,0 l/m 0,0 km/h W-NW 9,7 C 16,5 C 0,0 km/h
02.03.2012 16:00 15,6 C 63 % 1021,8 hPa 0,0 l/m 0,0 km/h W-NW 8,6 C 15,6 C 0,0 km/h
02.03.2012 17:00 11,2 C 73 % 1021,9 hPa 0,0 l/m 0,0 km/h W-SW 6,5 C 11,2 C 0,0 km/h
02.03.2012 18:00 7,4 C 85 % 1021,9 hPa 0,0 l/m 0,0 km/h S-SO 5,0 C 7,4 C 0,0 km/h
02.03.2012 19:00 7,1 C 85 % 1021,9 hPa 0,0 l/m 2,6 km/h S-SO 4,8 C 7,1 C 1,4 km/h
02.03.2012 20:00 7,0 C 84 % 1022,1 hPa 0,0 l/m 0,0 km/h NO 4,5 C 7,0 C 0,0 km/h
02.03.2012 21:00 6,8 C 83 % 1022,1 hPa 0,0 l/m 0,0 km/h O-NO 4,1 C 6,8 C 0,0 km/h
02.03.2012 22:00 6,5 C 83 % 1022,0 hPa 0,0 l/m 0,0 km/h SO 3,8 C 6,5 C 0,0 km/h
02.03.2012 23:00 6,4 C 82 % 1021,8 hPa 0,0 l/m 1,9 km/h SO 3,6 C 6,4 C 1,1 km/h
03.03.2012 00:00 5,9 C 81 % 1021,7 hPa 0,0 l/m 15,6 km/h SO 2,9 C -0,1 C 8,6 km/h
03.03.2012 01:00 5,5 C 79 % 1021,4 hPa 0,0 l/m 16,2 km/h O-SO 2,2 C -0,9 C 9,0 km/h
03.03.2012 02:00 5,2 C 79 % 1021,5 hPa 0,0 l/m 4,5 km/h O-SO 1,9 C 5,2 C 2,5 km/h
03.03.2012 03:00 5,2 C 78 % 1021,0 hPa 0,0 l/m 0,0 km/h SO 1,7 C 5,2 C 0,0 km/h
03.03.2012 04:00 5,1 C 78 % 1020,9 hPa 0,0 l/m 7,1 km/h O-SO 1,6 C 4,5 C 4,0 km/h
03.03.2012 05:00 5,1 C 77 % 1020,6 hPa 0,0 l/m 1,9 km/h O-SO 1,4 C 5,1 C 1,1 km/h
03.03.2012 06:00 4,8 C 77 % 1020,7 hPa 0,0 l/m 5,8 km/h SO 1,1 C 4,8 C 3,2 km/h
03.03.2012 07:00 4,8 C 77 % 1021,0 hPa 0,0 l/m 7,8 km/h O-SO 1,1 C 3,6 C 4,3 km/h
03.03.2012 08:00 4,9 C 76 % 1021,3 hPa 0,0 l/m 0,0 km/h O-SO 1,0 C 4,9 C 0,0 km/h
03.03.2012 09:00 5,9 C 76 % 1021,5 hPa 0,0 l/m 4,5 km/h N 2,0 C 5,9 C 2,5 km/h
03.03.2012 10:00 10,2 C 86 % 1021,4 hPa 0,0 l/m 0,0 km/h W-SW 8,0 C 10,2 C 0,0 km/h
03.03.2012 11:00 16,2 C 63 % 1021,3 hPa 0,0 l/m 0,0 km/h NO 9,1 C 16,2 C 0,0 km/h
03.03.2012 12:00 15,9 C 57 % 1020,8 hPa 0,0 l/m 9,7 km/h NW 7,4 C 14,2 C 5,4 km/h
03.03.2012 13:00 17,4 C 54 % 1020,6 hPa 0,0 l/m 1,3 km/h NO 8,0 C 17,4 C 0,7 km/h
03.03.2012 14:00 19,3 C 48 % 1020,3 hPa 0,0 l/m 0,0 km/h NW 8,0 C 19,3 C 0,0 km/h
03.03.2012 15:00 21,5 C 43 % 1019,9 hPa 0,0 l/m 1,9 km/h N-NW 8,4 C 21,5 C 1,1 km/h
03.03.2012 16:00 21,6 C 43 % 1019,9 hPa 0,0 l/m 0,0 km/h W-NW 8,5 C 21,6 C 0,0 km/h
03.03.2012 17:00 16,8 C 54 % 1020,1 hPa 0,0 l/m 0,0 km/h SW 7,4 C 16,8 C 0,0 km/h
03.03.2012 18:00 10,3 C 73 % 1020,7 hPa 0,0 l/m 9,7 km/h W-SW 5,7 C 8,1 C 5,4 km/h
03.03.2012 19:00 8,2 C 81 % 1021,4 hPa 0,0 l/m 3,2 km/h W-SW 5,1 C 8,2 C 1,8 km/h
03.03.2012 20:00 6,3 C 84 % 1022,2 hPa 0,0 l/m 0,0 km/h W-NW 3,8 C 6,3 C 0,0 km/h
03.03.2012 21:00 5,3 C 85 % 1022,6 hPa 0,0 l/m 0,0 km/h NO 3,0 C 5,3 C 0,0 km/h
03.03.2012 22:00 4,1 C 85 % 1023,3 hPa 0,0 l/m 0,0 km/h N-NO 1,8 C 4,1 C 0,0 km/h
03.03.2012 23:00 5,4 C 85 % 1023,7 hPa 0,0 l/m 0,0 km/h N-NO 3,1 C 5,4 C 0,0 km/h
04.03.2012 00:00 6,1 C 85 % 1023,9 hPa 0,0 l/m 0,0 km/h N-NO 3,8 C 6,1 C 0,0 km/h
04.03.2012 01:00 6,9 C 86 % 1023,9 hPa 0,0 l/m 0,0 km/h N-NO 4,7 C 6,9 C 0,0 km/h
04.03.2012 02:00 6,5 C 86 % 1023,8 hPa 0,0 l/m 0,0 km/h N-NO 4,3 C 6,5 C 0,0 km/h
04.03.2012 03:00 6,3 C 86 % 1023,2 hPa 0,0 l/m 0,0 km/h NO 4,1 C 6,3 C 0,0 km/h
04.03.2012 04:00 6,2 C 86 % 1022,7 hPa 0,0 l/m 0,0 km/h NO 4,0 C 6,2 C 0,0 km/h
04.03.2012 05:00 6,1 C 86 % 1022,5 hPa 0,0 l/m 0,0 km/h NO 3,9 C 6,1 C 0,0 km/h
04.03.2012 06:00 5,8 C 86 % 1022,1 hPa 0,0 l/m 0,0 km/h NO 3,6 C 5,8 C 0,0 km/h
04.03.2012 07:00 5,9 C 86 % 1021,9 hPa 0,0 l/m 0,0 km/h O 3,7 C 5,9 C 0,0 km/h
04.03.2012 08:00 6,9 C 86 % 1021,3 hPa 0,0 l/m 0,0 km/h NO 4,7 C 6,9 C 0,0 km/h
04.03.2012 09:00 8,6 C 83 % 1020,7 hPa 0,0 l/m 0,0 km/h N-NW 5,9 C 8,6 C 0,0 km/h
04.03.2012 10:00 11,0 C 70 % 1020,1 hPa 0,0 l/m 0,0 km/h NW 5,7 C 11,0 C 0,0 km/h
04.03.2012 11:00 15,2 C 58 % 1019,4 hPa 0,0 l/m 0,0 km/h SW 7,0 C 15,2 C 0,0 km/h
04.03.2012 12:00 15,1 C 54 % 1018,8 hPa 0,0 l/m 0,0 km/h W-SW 5,9 C 15,1 C 0,0 km/h
04.03.2012 13:00 14,4 C 56 % 1017,7 hPa 0,0 l/m 13,6 km/h NW 5,7 C 11,0 C 7,6 km/h
04.03.2012 14:00 16,1 C 51 % 1016,9 hPa 0,0 l/m 6,5 km/h W-NW 6,0 C 16,1 C 3,6 km/h
04.03.2012 15:00 17,6 C 48 % 1016,0 hPa 0,0 l/m 0,0 km/h NW 6,5 C 17,6 C 0,0 km/h
04.03.2012 16:00 14,9 C 53 % 1015,7 hPa 0,0 l/m 14,3 km/h N-NO 5,4 C 11,3 C 7,9 km/h
04.03.2012 17:00 10,8 C 64 % 1015,1 hPa 0,0 l/m 0,0 km/h N-NO 4,3 C 10,8 C 0,0 km/h
04.03.2012 18:00 8,1 C 71 % 1015,3 hPa 0,0 l/m 0,0 km/h O 3,2 C 8,1 C 0,0 km/h
04.03.2012 19:00 6,2 C 79 % 1014,9 hPa 0,0 l/m 0,0 km/h O-NO 2,8 C 6,2 C 0,0 km/h
04.03.2012 20:00 5,1 C 82 % 1014,5 hPa 0,0 l/m 0,0 km/h O-NO 2,3 C 5,1 C 0,0 km/h
04.03.2012 21:00 4,1 C 84 % 1014,2 hPa 0,0 l/m 0,0 km/h O-SO 1,6 C 4,1 C 0,0 km/h
04.03.2012 22:00 4,8 C 85 % 1013,6 hPa 0,0 l/m 0,0 km/h O-SO 2,5 C 4,8 C 0,0 km/h
04.03.2012 23:00 4,7 C 85 % 1013,2 hPa 0,0 l/m 0,0 km/h NO 2,4 C 4,7 C 0,0 km/h
Min-Datum _ 27.02.12 27.02.12 04.03.12 - 27.02.12 - 27.02.12 27.02.12 27.02.12
_ Min-Zeit 05:30 15:30 23:30 - 00:30 - 07:30 05:30 00:30
Minimum _ -1,9 C 39 % 1013,2 hPa - 0,0 km/h - -3,9 C -1,9 C 0,0 km/h
Max-Datum _ 03.03.12 27.02.12 27.02.12 27.02.12 27.02.12 - 29.02.12 03.03.12 27.02.12
_ Max-Zeit 16:30 03:30 10:30 00:30 12:30 - 16:30 16:30 12:30
Maximum _ 21,6 C 87 % 1026,2 hPa 0,0 l/m 18,8 km/h
W
- 10,2 C 21,6 C 10,4 km/h
W
Durchschnitt _ 7,2 C 76 % 1022,4 hPa #0,0 l/m 1,3 km/h O-NO 2,9 C 7,0 C 0,7 km/h
www.sexauwetter.de